Time;durP1;ratioP1;P1;durP2;ratioP2;P2;SDS_P1;SDS_P2;PMS_P1;PMS_P2;Temp;Humidity;BMP_temperature;BMP_pressure;BME280_temperature;BME280_humidity;BME280_pressure;Samples;Min_cycle;Max_cycle;Signal;HPM_P1;HPM_P2
2021/03/15 00:01:21;;;;;;;8.13;5.50;;;-0.30;99.90;;;;;;4995282;28;20134;-86
2021/03/15 00:03:48;;;;;;;6.85;5.47;;;-0.20;99.90;;;;;;4995539;28;20508;-86
2021/03/15 00:06:14;;;;;;;9.05;6.18;;;-0.20;99.90;;;;;;4978120;28;20054;-87
2021/03/15 00:08:40;;;;;;;12.63;6.68;;;-0.10;99.90;;;;;;4978314;28;20154;-87
2021/03/15 00:11:07;;;;;;;10.63;6.93;;;0.00;99.90;;;;;;4995596;28;20051;-87
2021/03/15 00:13:33;;;;;;;13.70;7.25;;;0.10;99.90;;;;;;4977920;28;20460;-87
2021/03/15 00:16:03;;;;;;;9.40;6.82;;;0.10;99.90;;;;;;4977916;28;20440;-87
2021/03/15 00:18:30;;;;;;;11.35;7.13;;;0.20;99.90;;;;;;4995507;28;20085;-87
2021/03/15 00:21:00;;;;;;;12.52;6.82;;;0.20;99.90;;;;;;4977721;28;20054;-87
2021/03/15 00:23:26;;;;;;;10.73;6.50;;;0.20;99.90;;;;;;4995540;28;20109;-87
2021/03/15 00:25:53;;;;;;;9.90;7.28;;;0.40;99.90;;;;;;4982151;28;20105;-87
2021/03/15 00:28:20;;;;;;;12.73;7.30;;;0.40;99.90;;;;;;4977815;28;20046;-87
2021/03/15 00:30:46;;;;;;;9.90;6.45;;;0.40;99.90;;;;;;4995251;28;20070;-86
2021/03/15 00:33:39;;;;;;;13.98;7.57;;;0.50;99.90;;;;;;4981525;28;20125;-86
2021/03/15 00:36:16;;;;;;;9.02;6.75;;;0.60;99.90;;;;;;4999146;28;20458;-86
2021/03/15 00:38:43;;;;;;;12.20;7.32;;;0.60;99.90;;;;;;4997373;28;20049;-87
2021/03/15 00:41:32;;;;;;;10.48;7.18;;;0.60;99.90;;;;;;4997289;28;20053;-86
2021/03/15 00:43:59;;;;;;;11.43;7.80;;;0.60;99.90;;;;;;4997218;28;20057;-86
2021/03/15 00:46:28;;;;;;;8.88;6.78;;;0.60;99.90;;;;;;4997101;28;20050;-87
2021/03/15 00:49:40;;;;;;;11.70;7.05;;;0.60;99.90;;;;;;4997403;28;20049;-86
2021/03/15 00:52:07;;;;;;;13.00;6.53;;;0.50;99.90;;;;;;5014417;28;20069;-86
2021/03/15 00:54:33;;;;;;;13.23;7.57;;;0.50;99.90;;;;;;4998177;28;20074;-85
2021/03/15 00:57:01;;;;;;;14.15;7.90;;;0.60;99.90;;;;;;4998291;28;20107;-85
2021/03/15 00:59:28;;;;;;;13.75;8.55;;;0.60;99.90;;;;;;4998514;28;20137;-85
2021/03/15 01:01:54;;;;;;;14.50;8.57;;;0.70;99.90;;;;;;5018443;28;20057;-86
2021/03/15 01:04:20;;;;;;;12.23;7.90;;;0.70;99.90;;;;;;4998444;28;20057;-84
2021/03/15 01:06:47;;;;;;;12.38;7.43;;;0.70;99.90;;;;;;4998266;28;20491;-83
2021/03/15 01:09:15;;;;;;;16.58;8.75;;;0.80;99.90;;;;;;4997893;28;20078;-84
2021/03/15 01:11:41;;;;;;;18.05;8.27;;;0.80;99.90;;;;;;5000337;28;20042;-84
2021/03/15 01:14:09;;;;;;;16.73;8.02;;;0.80;99.90;;;;;;5001864;28;20064;-83
2021/03/15 01:16:36;;;;;;;11.63;7.72;;;0.80;99.90;;;;;;4999763;28;20460;-84
2021/03/15 01:19:05;;;;;;;11.48;7.45;;;0.70;99.90;;;;;;5002015;28;20057;-84
2021/03/15 01:21:31;;;;;;;15.07;8.88;;;0.80;99.90;;;;;;5001703;28;20464;-84
2021/03/15 01:23:58;;;;;;;14.35;8.07;;;0.80;99.90;;;;;;5001982;28;20042;-84
2021/03/15 01:26:25;;;;;;;11.55;8.20;;;0.80;99.90;;;;;;5020233;28;20050;-84
2021/03/15 01:28:51;;;;;;;16.85;8.70;;;0.90;99.90;;;;;;5002574;28;20042;-83
2021/03/15 01:31:18;;;;;;;12.63;8.57;;;0.90;99.90;;;;;;5002733;28;20053;-84
2021/03/15 01:33:44;;;;;;;18.38;9.80;;;0.90;99.90;;;;;;5002556;28;20053;-84
2021/03/15 01:36:13;;;;;;;14.52;8.65;;;1.00;99.90;;;;;;5002489;28;20173;-83
2021/03/15 01:38:39;;;;;;;16.77;10.43;;;1.10;99.90;;;;;;5005312;28;20046;-84
2021/03/15 01:41:05;;;;;;;14.07;9.40;;;1.10;99.90;;;;;;5005859;28;20069;-83
2021/03/15 01:43:31;;;;;;;12.98;8.25;;;1.20;99.90;;;;;;5005724;28;20062;-84
2021/03/15 01:45:58;;;;;;;13.68;8.18;;;1.20;99.90;;;;;;5005771;28;20100;-84
2021/03/15 01:48:24;;;;;;;12.85;8.13;;;1.20;99.90;;;;;;5004226;28;20069;-84
2021/03/15 01:50:50;;;;;;;10.60;7.40;;;1.20;99.90;;;;;;5019746;28;20443;-83
2021/03/15 01:53:19;;;;;;;17.45;8.23;;;1.30;99.90;;;;;;5020394;28;20046;-84
2021/03/15 01:55:48;;;;;;;11.85;7.53;;;1.30;99.90;;;;;;5002513;28;20053;-84
2021/03/15 01:58:15;;;;;;;15.45;9.27;;;1.30;99.90;;;;;;5002591;28;20060;-84
2021/03/15 02:00:43;;;;;;;16.42;8.18;;;1.40;99.90;;;;;;5020611;28;20053;-84
2021/03/15 02:03:09;;;;;;;16.08;9.10;;;1.40;99.90;;;;;;5003350;28;20053;-84
2021/03/15 02:05:38;;;;;;;15.88;8.85;;;1.50;99.90;;;;;;5020682;28;20124;-84
2021/03/15 02:08:06;;;;;;;15.52;8.77;;;1.70;99.90;;;;;;5002959;28;20049;-83
2021/03/15 02:10:34;;;;;;;15.32;8.00;;;1.90;99.90;;;;;;5002573;28;20072;-83
2021/03/15 02:13:09;;;;;;;12.75;7.32;;;2.10;99.90;;;;;;5002637;28;20061;-84
2021/03/15 02:16:12;;;;;;;14.02;8.07;;;2.30;99.90;;;;;;5020118;28;20115;-83
2021/03/15 02:18:59;;;;;;;12.30;7.28;;;2.40;99.90;;;;;;5019888;28;20049;-84
2021/03/15 02:21:44;;;;;;;11.07;6.82;;;2.40;99.90;;;;;;5002022;28;20133;-83
2021/03/15 02:24:38;;;;;;;13.55;6.75;;;2.60;99.90;;;;;;5003223;28;20108;-84
2021/03/15 02:27:27;;;;;;;14.55;6.40;;;2.80;99.90;;;;;;5003598;28;20072;-84
2021/03/15 02:30:11;;;;;;;10.35;6.70;;;2.80;99.90;;;;;;5001554;28;20074;-83
2021/03/15 02:33:03;;;;;;;;;;;2.90;99.90;;;;;;5003346;28;20054;-84
2021/03/15 02:35:33;;;;;;;10.55;5.88;;;2.90;99.90;;;;;;4967968;28;19922;-84
2021/03/15 02:38:07;;;;;;;10.05;5.40;;;2.90;99.90;;;;;;4983115;28;20050;-86
2021/03/15 02:40:34;;;;;;;;;;;3.00;99.90;;;;;;4983864;28;20054;-85
2021/03/15 02:43:04;;;;;;;7.90;5.47;;;2.90;99.90;;;;;;5001108;28;19972;-84
2021/03/15 02:45:34;;;;;;;8.25;5.30;;;2.90;99.90;;;;;;4983500;28;20086;-85
2021/03/15 02:48:09;;;;;;;8.85;5.40;;;2.90;99.90;;;;;;4983267;28;20055;-85
2021/03/15 02:50:39;;;;;;;9.15;5.95;;;2.90;99.90;;;;;;4984258;28;20408;-83
2021/03/15 02:53:09;;;;;;;8.50;5.10;;;2.90;99.90;;;;;;4983477;28;20058;-84
2021/03/15 02:55:37;;;;;;;8.57;5.28;;;3.00;99.90;;;;;;5001121;28;20047;-84
2021/03/15 02:58:05;;;;;;;9.38;5.20;;;3.00;99.90;;;;;;5001324;28;20054;-84
2021/03/15 03:00:32;;;;;;;6.75;5.22;;;3.00;99.90;;;;;;5001195;28;20085;-83
2021/03/15 03:03:01;;;;;;;9.82;5.40;;;3.00;99.90;;;;;;4983745;28;20061;-84
2021/03/15 03:05:31;;;;;;;12.13;5.90;;;3.10;99.90;;;;;;4983835;28;20086;-84
2021/03/15 03:08:17;;;;;;;10.25;5.25;;;3.10;99.90;;;;;;4986778;28;20110;-84
2021/03/15 03:10:46;;;;;;;6.03;4.97;;;3.20;99.90;;;;;;4984242;28;20046;-84
2021/03/15 03:13:14;;;;;;;7.82;4.88;;;3.20;99.90;;;;;;5001757;28;20050;-84
2021/03/15 03:15:41;;;;;;;15.68;5.70;;;3.20;99.90;;;;;;5001396;28;20062;-84
2021/03/15 03:18:14;;;;;;;8.57;5.95;;;3.30;99.90;;;;;;4983690;28;20054;-84
2021/03/15 03:20:51;;;;;;;14.30;6.30;;;3.30;99.90;;;;;;5001627;28;20061;-83
2021/03/15 03:23:19;;;;;;;8.15;5.40;;;3.40;99.90;;;;;;4984388;28;20058;-83
2021/03/15 03:25:46;;;;;;;9.88;5.53;;;3.40;99.90;;;;;;4984416;28;20488;-84
2021/03/15 03:28:14;;;;;;;8.13;6.07;;;3.50;99.90;;;;;;4984213;28;20416;-85
2021/03/15 03:30:43;;;;;;;8.95;6.85;;;3.60;99.90;;;;;;4985237;28;20050;-84
2021/03/15 03:33:13;;;;;;;11.05;5.95;;;3.60;99.90;;;;;;4988093;28;20046;-84
2021/03/15 03:35:41;;;;;;;10.48;6.35;;;3.60;99.90;;;;;;5005144;28;20058;-84
2021/03/15 03:38:08;;;;;;;10.75;7.30;;;3.60;99.90;;;;;;5004452;28;20070;-86
2021/03/15 03:40:34;;;;;;;9.55;6.93;;;3.60;99.90;;;;;;5006089;28;20077;-84
2021/03/15 03:43:01;;;;;;;11.43;7.13;;;3.70;99.90;;;;;;5021812;28;20496;-83
2021/03/15 03:45:27;;;;;;;11.07;7.47;;;3.70;99.90;;;;;;5005443;28;20077;-84
2021/03/15 03:47:55;;;;;;;11.32;7.72;;;3.80;99.90;;;;;;5005087;28;20042;-84
2021/03/15 03:50:24;;;;;;;11.13;7.68;;;3.80;99.90;;;;;;5003744;28;20042;-84
2021/03/15 03:53:12;;;;;;;12.10;8.07;;;3.80;99.90;;;;;;5005920;28;20073;-84
2021/03/15 03:55:47;;;;;;;10.35;6.82;;;3.80;99.90;;;;;;5006515;28;20053;-84
2021/03/15 03:58:17;;;;;;;8.23;6.18;;;3.80;99.90;;;;;;5004580;28;20522;-84
2021/03/15 04:00:45;;;;;;;12.25;6.55;;;3.80;99.90;;;;;;5007794;28;20078;-83
2021/03/15 04:03:17;;;;;;;8.88;6.68;;;3.80;99.90;;;;;;5005375;28;20054;-84
2021/03/15 04:05:53;;;;;;;8.68;6.32;;;3.80;99.90;;;;;;5005876;28;20053;-84
2021/03/15 04:08:23;;;;;;;8.27;5.80;;;3.80;99.90;;;;;;5022367;28;20056;-84
2021/03/15 04:10:51;;;;;;;8.02;5.85;;;3.80;99.90;;;;;;5004999;28;20554;-84
2021/03/15 04:13:25;;;;;;;10.27;6.07;;;3.80;99.90;;;;;;5004678;28;20050;-84
2021/03/15 04:15:51;;;;;;;10.65;5.75;;;3.80;99.90;;;;;;5021909;28;20069;-83
2021/03/15 04:18:21;;;;;;;8.15;5.10;;;3.80;99.90;;;;;;5004657;28;20086;-84
2021/03/15 04:20:54;;;;;;;5.32;4.55;;;3.80;99.90;;;;;;5005392;28;20104;-85
2021/03/15 04:23:31;;;;;;;8.27;4.75;;;3.70;99.90;;;;;;5005621;28;20069;-84
2021/03/15 04:25:58;;;;;;;4.55;4.05;;;3.70;99.90;;;;;;5005450;28;20104;-85
2021/03/15 04:28:28;;;;;;;4.25;3.85;;;3.70;99.90;;;;;;5004095;28;20077;-84
2021/03/15 04:30:56;;;;;;;4.35;3.70;;;3.70;99.90;;;;;;5005228;28;20125;-85
2021/03/15 04:33:23;;;;;;;4.70;3.50;;;3.70;99.90;;;;;;5003989;28;20057;-85
2021/03/15 04:35:52;;;;;;;4.60;4.20;;;3.70;99.90;;;;;;5004796;28;20049;-85
2021/03/15 04:38:20;;;;;;;3.97;3.47;;;3.60;99.90;;;;;;5004454;28;20057;-85
2021/03/15 04:40:49;;;;;;;4.03;3.53;;;3.60;99.90;;;;;;5005000;28;20124;-85
2021/03/15 04:43:16;;;;;;;3.28;2.67;;;3.50;99.90;;;;;;5005512;28;20054;-85
2021/03/15 04:45:44;;;;;;;3.83;2.75;;;3.50;99.90;;;;;;5003790;28;20057;-82
2021/03/15 04:48:21;;;;;;;2.80;2.30;;;3.40;99.90;;;;;;5004019;28;20105;-85
2021/03/15 04:50:51;;;;;;;2.22;2.13;;;3.50;99.90;;;;;;5003788;28;20057;-84
2021/03/15 04:53:19;;;;;;;2.65;1.92;;;3.50;99.90;;;;;;5024709;28;20053;-84
2021/03/15 04:55:46;;;;;;;3.38;2.95;;;3.40;99.90;;;;;;5006937;28;20077;-85
2021/03/15 04:58:17;;;;;;;2.28;2.17;;;3.50;99.90;;;;;;5006333;28;20507;-84
2021/03/15 05:00:47;;;;;;;2.17;2.08;;;3.50;99.90;;;;;;5004687;28;20104;-84
2021/03/15 05:03:16;;;;;;;2.08;1.90;;;3.40;99.90;;;;;;5007700;28;20080;-83
2021/03/15 05:05:47;;;;;;;1.73;1.63;;;3.40;99.90;;;;;;5008084;28;20053;-85
2021/03/15 05:08:17;;;;;;;1.80;1.70;;;3.40;99.90;;;;;;5007650;28;20496;-84
2021/03/15 05:10:45;;;;;;;2.22;1.73;;;3.40;99.90;;;;;;5007222;28;20046;-85
2021/03/15 05:13:13;;;;;;;1.70;1.60;;;3.40;99.90;;;;;;5007387;28;20400;-84
2021/03/15 05:15:39;;;;;;;1.55;1.48;;;3.40;99.90;;;;;;5006679;28;20458;-83
2021/03/15 05:18:12;;;;;;;1.52;1.42;;;3.50;99.90;;;;;;5006846;28;20056;-84
2021/03/15 05:20:39;;;;;;;2.37;1.67;;;3.50;99.90;;;;;;5006836;28;20082;-84
2021/03/15 05:23:10;;;;;;;1.63;1.45;;;3.50;99.90;;;;;;5007200;28;20320;-84
2021/03/15 05:25:39;;;;;;;1.80;1.70;;;3.50;99.90;;;;;;5006364;28;20053;-84
2021/03/15 05:28:07;;;;;;;1.92;1.45;;;3.60;99.90;;;;;;5007353;28;20077;-84
2021/03/15 05:30:34;;;;;;;1.70;1.60;;;3.70;99.90;;;;;;5007254;28;20046;-85
2021/03/15 05:33:04;;;;;;;2.13;2.00;;;3.70;99.90;;;;;;5006602;28;20072;-83
2021/03/15 05:35:31;;;;;;;2.70;2.42;;;3.70;99.90;;;;;;5005777;28;20054;-84
2021/03/15 05:38:00;;;;;;;2.42;2.20;;;3.70;99.90;;;;;;5005703;28;20046;-84
2021/03/15 05:40:28;;;;;;;3.38;2.30;;;3.80;99.90;;;;;;5006541;28;20080;-83
2021/03/15 05:43:00;;;;;;;2.65;2.45;;;3.70;99.90;;;;;;5006767;28;20054;-84
2021/03/15 05:45:55;;;;;;;4.05;2.60;;;3.80;99.90;;;;;;5023446;28;20136;-84
2021/03/15 05:48:47;;;;;;;4.75;3.10;;;3.80;99.90;;;;;;5005877;28;20041;-84
2021/03/15 05:51:23;;;;;;;4.38;3.45;;;3.70;99.90;;;;;;5022720;28;20046;-84
2021/03/15 05:54:36;;;;;;;3.67;3.22;;;3.70;99.90;;;;;;5023356;28;20116;-84
2021/03/15 05:57:05;;;;;;;4.25;3.08;;;3.70;99.90;;;;;;5007792;28;20100;-85
2021/03/15 05:59:37;;;;;;;5.03;3.88;;;3.70;99.90;;;;;;5007058;28;20061;-85
2021/03/15 06:02:44;;;;;;;5.30;3.42;;;3.70;99.90;;;;;;5011588;28;20038;-85
2021/03/15 06:05:24;;;;;;;4.68;3.50;;;3.80;99.90;;;;;;5024988;28;20050;-83
2021/03/15 06:07:56;;;;;;;4.50;4.10;;;3.80;99.90;;;;;;5008068;28;20046;-85
2021/03/15 06:11:16;;;;;;;5.70;4.45;;;3.80;99.90;;;;;;5007468;28;20517;-84
2021/03/15 06:13:43;;;;;;;6.18;4.00;;;3.90;99.90;;;;;;5023159;28;20483;-84
2021/03/15 06:16:11;;;;;;;4.95;3.67;;;3.90;99.90;;;;;;5002307;28;20076;-84
2021/03/15 06:18:39;;;;;;;6.80;4.05;;;3.90;99.90;;;;;;5005650;28;20052;-85
2021/03/15 06:21:13;;;;;;;8.57;4.38;;;3.90;99.90;;;;;;5006928;28;20054;-85
2021/03/15 06:23:39;;;;;;;7.57;3.70;;;3.90;99.90;;;;;;5007410;28;20049;-85
2021/03/15 06:26:07;;;;;;;5.05;3.80;;;4.00;99.90;;;;;;5007520;28;20057;-85
2021/03/15 06:28:35;;;;;;;5.55;3.95;;;4.00;99.90;;;;;;5007248;28;20079;-85
2021/03/15 06:31:01;;;;;;;4.20;3.55;;;4.00;99.90;;;;;;5024724;28;20096;-85
2021/03/15 06:33:28;;;;;;;4.53;3.70;;;4.00;99.90;;;;;;5002564;28;20081;-84
2021/03/15 06:36:11;;;;;;;6.93;4.40;;;4.10;99.90;;;;;;4987171;28;20053;-84
2021/03/15 06:38:40;;;;;;;5.05;3.72;;;4.00;99.90;;;;;;4986286;28;20500;-84
2021/03/15 06:41:07;;;;;;;5.32;3.90;;;4.10;99.90;;;;;;4987577;28;20535;-85
2021/03/15 06:43:34;;;;;;;5.80;4.93;;;4.10;99.90;;;;;;4986009;28;20065;-84
2021/03/15 06:46:00;;;;;;;5.13;4.50;;;4.10;99.90;;;;;;4986113;28;20046;-85
2021/03/15 06:48:29;;;;;;;5.28;3.97;;;4.10;99.90;;;;;;4987462;28;20159;-85
2021/03/15 06:50:57;;;;;;;8.77;5.25;;;4.10;99.90;;;;;;5003444;28;20077;-85
2021/03/15 06:53:35;;;;;;;8.07;4.70;;;4.10;99.90;;;;;;4986581;28;20053;-84
2021/03/15 06:56:01;;;;;;;8.80;5.03;;;4.20;99.90;;;;;;4985929;28;20042;-84
2021/03/15 06:58:32;;;;;;;6.57;4.85;;;4.20;99.90;;;;;;5002101;28;20054;-86
2021/03/15 07:01:07;;;;;;;6.55;4.95;;;4.20;99.90;;;;;;4985399;28;20058;-85
2021/03/15 07:03:34;;;;;;;9.95;5.32;;;4.20;99.90;;;;;;4986778;28;20046;-84
2021/03/15 07:06:01;;;;;;;8.32;5.05;;;4.30;99.90;;;;;;4986623;28;20078;-85
2021/03/15 07:08:29;;;;;;;10.95;5.00;;;4.30;99.90;;;;;;4985777;28;20093;-84
2021/03/15 07:11:25;;;;;;;9.50;4.60;;;4.40;99.90;;;;;;4988054;28;20050;-84
2021/03/15 07:13:52;;;;;;;8.23;4.82;;;4.40;99.90;;;;;;4985540;28;20046;-84
2021/03/15 07:16:31;;;;;;;6.47;4.88;;;4.30;99.90;;;;;;4985300;28;20421;-84
2021/03/15 07:19:02;;;;;;;11.13;4.75;;;4.30;99.90;;;;;;4985933;28;20058;-84
2021/03/15 07:21:37;;;;;;;32.28;21.95;;;4.40;99.90;;;;;;4986176;28;20046;-84
2021/03/15 07:24:09;;;;;;;9.82;5.60;;;4.40;99.90;;;;;;5002708;28;20054;-84
2021/03/15 07:26:39;;;;;;;12.48;4.82;;;4.30;99.90;;;;;;4986292;28;20519;-85
2021/03/15 07:29:12;;;;;;;6.38;4.35;;;4.30;99.90;;;;;;4985316;28;20447;-84
2021/03/15 07:31:39;;;;;;;8.60;4.60;;;4.30;99.90;;;;;;4985303;28;20055;-84
2021/03/15 07:34:05;;;;;;;4.53;4.07;;;4.20;99.90;;;;;;4989841;28;20053;-84
2021/03/15 07:36:45;;;;;;;7.00;4.57;;;4.20;99.90;;;;;;5008019;28;20049;-84
2021/03/15 07:39:12;;;;;;;5.00;3.45;;;4.20;99.90;;;;;;5015297;28;20049;-84
2021/03/15 07:41:46;;;;;;;4.60;3.53;;;4.20;99.90;;;;;;5006416;28;20066;-84
2021/03/15 07:44:29;;;;;;;3.10;2.85;;;4.10;99.90;;;;;;5006260;28;20060;-84
2021/03/15 07:46:58;;;;;;;3.05;2.80;;;4.20;99.90;;;;;;5005574;28;20053;-84
2021/03/15 07:49:31;;;;;;;3.15;2.42;;;4.20;99.90;;;;;;5006398;28;20420;-84
2021/03/15 07:52:00;;;;;;;2.80;2.60;;;4.20;99.90;;;;;;5007889;28;20049;-84
2021/03/15 07:54:45;;;;;;;2.65;2.45;;;4.20;99.90;;;;;;5007527;28;20045;-84
2021/03/15 07:57:21;;;;;;;2.00;1.90;;;4.30;99.90;;;;;;5024468;28;20049;-84
2021/03/15 07:59:53;;;;;;;4.20;2.00;;;4.30;99.90;;;;;;5006182;28;20052;-84
2021/03/15 08:02:25;;;;;;;2.00;1.90;;;4.30;99.90;;;;;;5008744;28;20065;-85
2021/03/15 08:04:53;;;;;;;1.80;1.55;;;4.40;99.90;;;;;;5009898;28;20459;-84
2021/03/15 08:07:21;;;;;;;2.15;1.60;;;4.40;99.90;;;;;;5010093;28;20056;-85
2021/03/15 08:09:51;;;;;;;1.58;1.48;;;4.50;99.90;;;;;;5011527;28;20062;-85
2021/03/15 08:12:18;;;;;;;1.95;1.45;;;4.60;99.90;;;;;;5010437;28;20422;-85
2021/03/15 08:14:47;;;;;;;1.17;1.17;;;4.60;99.90;;;;;;5010377;28;20110;-84
2021/03/15 08:17:19;;;;;;;1.55;1.30;;;4.60;99.90;;;;;;5010379;28;20054;-84
2021/03/15 08:19:47;;;;;;;1.23;1.23;;;4.70;99.90;;;;;;5009325;28;20133;-85
2021/03/15 08:22:27;;;;;;;1.73;1.63;;;4.70;99.90;;;;;;5010788;28;20045;-84
2021/03/15 08:24:57;;;;;;;1.38;1.38;;;4.70;99.90;;;;;;5011917;28;20045;-85
2021/03/15 08:27:28;;;;;;;2.25;2.15;;;4.70;99.90;;;;;;5014668;28;20057;-85
2021/03/15 08:30:00;;;;;;;1.15;1.15;;;4.80;99.90;;;;;;4976377;28;20047;-85
2021/03/15 08:32:30;;;;;;;1.50;1.40;;;4.80;99.90;;;;;;4994034;28;20047;-85
2021/03/15 08:34:57;;;;;;;1.40;1.30;;;4.80;99.90;;;;;;4977207;28;20051;-84
2021/03/15 08:37:53;;;;;;;1.15;1.15;;;4.80;99.90;;;;;;4976751;28;20054;-85
2021/03/15 08:40:42;;;;;;;1.13;1.05;;;4.80;99.90;;;;;;4990609;28;20054;-85
2021/03/15 08:43:17;;;;;;;1.20;1.20;;;4.90;99.90;;;;;;4975286;28;20051;-85
2021/03/15 08:45:58;;;;;;;1.13;1.00;;;5.00;99.90;;;;;;4974648;28;20527;-85
2021/03/15 08:48:36;;;;;;;1.02;1.02;;;5.00;99.90;;;;;;4976026;28;20082;-84
2021/03/15 08:51:04;;;;;;;1.00;1.00;;;5.10;99.90;;;;;;4977176;28;20074;-86
2021/03/15 08:53:36;;;;;;;1.10;1.10;;;5.10;99.90;;;;;;4976242;28;20079;-85
2021/03/15 08:56:10;;;;;;;2.67;1.10;;;5.30;99.90;;;;;;4993246;28;20051;-85
2021/03/15 08:58:37;;;;;;;1.20;1.05;;;5.30;99.90;;;;;;4975393;28;20106;-85
2021/03/15 09:01:06;;;;;;;1.02;1.00;;;5.40;99.90;;;;;;4975165;28;20065;-85
2021/03/15 09:03:48;;;;;;;0.90;0.90;;;5.40;99.90;;;;;;4975522;28;20456;-85
2021/03/15 09:06:38;;;;;;;2.67;2.47;;;5.40;99.90;;;;;;4975238;28;20064;-84
2021/03/15 09:09:12;;;;;;;1.15;1.15;;;5.50;99.90;;;;;;4974684;28;20055;-84
2021/03/15 09:11:42;;;;;;;1.17;1.13;;;5.50;99.90;;;;;;4974300;28;20133;-84
2021/03/15 09:14:14;;;;;;;0.90;0.90;;;5.50;99.90;;;;;;4972705;28;20046;-84
2021/03/15 09:16:53;;;;;;;1.20;1.20;;;5.60;99.90;;;;;;4972572;28;20077;-84
2021/03/15 09:19:47;;;;;;;0.50;0.50;;;5.70;99.90;;;;;;4969637;28;20062;-81
2021/03/15 09:22:30;;;;;;;0.60;0.60;;;5.70;99.90;;;;;;4970917;28;20046;-82
2021/03/15 09:25:04;;;;;;;0.40;0.40;;;5.80;99.90;;;;;;4969000;28;20061;-83
2021/03/15 09:27:41;;;;;;;0.40;0.40;;;5.60;99.90;;;;;;4970482;28;20051;-82
2021/03/15 09:30:35;;;;;;;0.30;0.30;;;5.50;99.90;;;;;;4968264;28;20202;-84
2021/03/15 09:33:04;;;;;;;0.30;0.30;;;5.40;99.90;;;;;;4967919;28;20057;-84
2021/03/15 09:35:40;;;;;;;0.30;0.30;;;5.30;99.90;;;;;;4968988;28;20493;-84
2021/03/15 09:38:21;;;;;;;0.40;0.40;;;5.40;99.90;;;;;;4969110;28;20078;-84
2021/03/15 09:40:53;;;;;;;0.20;0.20;;;5.40;99.90;;;;;;4966579;28;20085;-84
2021/03/15 09:43:28;;;;;;;0.20;0.20;;;5.40;99.90;;;;;;4983614;28;20046;-84
2021/03/15 09:45:59;;;;;;;0.20;0.20;;;5.30;99.90;;;;;;4968434;28;20054;-83
2021/03/15 09:48:28;;;;;;;0.60;0.20;;;5.20;99.90;;;;;;4986287;28;20047;-84
2021/03/15 09:51:03;;;;;;;0.30;0.30;;;5.30;99.90;;;;;;4967443;28;20520;-84
2021/03/15 09:53:29;;;;;;;0.30;0.30;;;5.30;99.90;;;;;;4969195;28;20113;-84
2021/03/15 09:56:13;;;;;;;0.32;0.32;;;5.30;99.90;;;;;;4987096;28;20047;-84
2021/03/15 09:58:40;;;;;;;0.30;0.30;;;5.40;99.90;;;;;;4985517;28;20501;-84
2021/03/15 10:01:15;;;;;;;0.35;0.35;;;5.40;99.90;;;;;;4969984;28;20050;-84
2021/03/15 10:03:50;;;;;;;0.30;0.30;;;5.50;99.90;;;;;;4968254;28;20553;-84
2021/03/15 10:06:24;;;;;;;0.20;0.20;;;5.60;99.90;;;;;;4966499;28;20117;-84
2021/03/15 10:08:57;;;;;;;0.22;0.22;;;5.60;99.90;;;;;;4970321;28;20058;-84
2021/03/15 10:11:23;;;;;;;0.30;0.30;;;5.70;99.90;;;;;;4971541;28;20046;-84
2021/03/15 10:13:58;;;;;;;0.30;0.30;;;5.80;99.90;;;;;;4972714;28;20103;-84
2021/03/15 10:16:25;;;;;;;1.60;0.43;;;5.80;99.90;;;;;;4981842;28;20078;-84
2021/03/15 10:18:52;;;;;;;1.73;0.20;;;5.80;99.90;;;;;;4979525;28;20046;-84
2021/03/15 10:21:27;;;;;;;0.15;0.15;;;6.00;99.90;;;;;;4970764;28;20065;-84
2021/03/15 10:23:54;;;;;;;1.98;0.30;;;6.20;99.90;;;;;;4970923;28;20061;-84
2021/03/15 10:26:27;;;;;;;0.20;0.20;;;6.40;99.90;;;;;;4970645;28;20054;-84
2021/03/15 10:28:53;;;;;;;0.30;0.30;;;6.70;99.90;;;;;;4970709;28;20043;-84
2021/03/15 10:31:21;;;;;;;0.35;0.35;;;7.00;99.90;;;;;;4970737;28;20054;-84
2021/03/15 10:33:49;;;;;;;1.58;0.40;;;7.10;99.90;;;;;;4981427;28;20043;-84
2021/03/15 10:36:22;;;;;;;2.03;0.55;;;7.20;99.90;;;;;;4950953;29;20082;-84
2021/03/15 10:38:49;;;;;;;0.98;0.30;;;7.30;99.90;;;;;;4950394;29;20074;-83
2021/03/15 10:41:16;;;;;;;0.15;0.15;;;7.20;99.90;;;;;;4950890;29;20055;-84
2021/03/15 10:43:45;;;;;;;0.22;0.22;;;7.20;99.90;;;;;;4966364;29;20489;-84
2021/03/15 10:46:24;;;;;;;0.20;0.20;;;7.10;99.90;;;;;;4949982;29;20138;-84
2021/03/15 10:48:52;;;;;;;0.22;0.22;;;7.10;99.90;;;;;;4948895;29;20047;-84
2021/03/15 10:51:18;;;;;;;0.30;0.30;;;7.10;99.90;;;;;;4950359;29;20086;-84
2021/03/15 10:53:55;;;;;;;0.43;0.20;;;7.00;99.90;;;;;;4950113;29;20051;-84
2021/03/15 10:56:22;;;;;;;0.17;0.17;;;6.80;99.90;;;;;;4948529;29;20047;-84
2021/03/15 10:58:49;;;;;;;0.10;0.10;;;6.60;99.90;;;;;;4949967;29;20117;-84
2021/03/15 11:01:24;;;;;;;0.15;0.15;;;6.60;99.90;;;;;;4949672;29;20051;-84
2021/03/15 11:03:51;;;;;;;0.20;0.20;;;6.70;99.90;;;;;;4949370;29;20062;-84
2021/03/15 11:06:21;;;;;;;0.30;0.30;;;7.10;99.90;;;;;;4949774;29;20078;-84
2021/03/15 11:08:55;;;;;;;3.70;0.30;;;7.20;99.90;;;;;;4949962;29;20051;-84
2021/03/15 11:11:26;;;;;;;0.75;0.20;;;6.90;99.90;;;;;;4966605;29;20047;-84
2021/03/15 11:13:56;;;;;;;0.30;0.30;;;6.60;99.90;;;;;;4949310;29;20134;-85
2021/03/15 11:16:26;;;;;;;0.55;0.43;;;6.60;99.90;;;;;;4966277;29;20051;-84
2021/03/15 11:19:05;;;;;;;0.20;0.20;;;6.80;99.90;;;;;;4948255;29;20051;-84
2021/03/15 11:21:33;;;;;;;0.20;0.20;;;7.30;99.90;;;;;;4949352;29;20118;-84
2021/03/15 11:24:04;;;;;;;0.30;0.30;;;7.70;99.90;;;;;;4948924;29;20051;-84
2021/03/15 11:26:52;;;;;;;0.30;0.30;;;7.80;99.90;;;;;;4946881;29;20051;-84
2021/03/15 11:29:38;;;;;;;1.17;0.10;;;7.50;99.90;;;;;;4947360;29;20066;-85
2021/03/15 11:32:09;;;;;;;0.20;0.20;;;7.40;99.90;;;;;;4947476;29;20055;-84
2021/03/15 11:34:48;;;;;;;0.20;0.20;;;7.50;99.90;;;;;;4958394;28;20077;-83
2021/03/15 11:37:22;;;;;;;0.45;0.45;;;7.30;99.90;;;;;;4965927;28;20134;-84
2021/03/15 11:39:50;;;;;;;;;;;7.00;99.90;;;;;;4960569;28;20047;-85
2021/03/15 11:42:27;;;;;;;0.60;0.60;;;7.10;99.90;;;;;;4965545;28;19929;-85
2021/03/15 11:45:01;;;;;;;3.20;2.90;;;7.30;99.90;;;;;;4964825;28;20133;-85
2021/03/15 11:47:27;;;;;;;1.45;1.27;;;7.20;99.90;;;;;;4981995;28;20101;-85
2021/03/15 11:49:54;;;;;;;0.88;0.85;;;7.80;99.90;;;;;;4964755;28;20507;-85
2021/03/15 11:52:28;;;;;;;1.15;0.90;;;7.90;99.90;;;;;;4964670;28;20050;-85
2021/03/15 11:54:59;;;;;;;17.73;12.27;;;7.90;99.90;;;;;;4964047;28;20055;-85
2021/03/15 11:57:26;;;;;;;1.00;0.98;;;7.30;99.90;;;;;;4964242;28;20567;-84
2021/03/15 11:59:52;;;;;;;1.70;0.70;;;7.10;99.90;;;;;;4963550;28;20043;-85
2021/03/15 12:02:22;;;;;;;1.38;0.85;;;7.10;99.90;;;;;;4964876;28;20065;-84
2021/03/15 12:04:48;;;;;;;3.45;0.55;;;7.10;99.90;;;;;;4965157;28;20074;-84
2021/03/15 12:07:16;;;;;;;0.55;0.40;;;8.20;99.90;;;;;;4982208;28;20496;-84
2021/03/15 12:09:43;;;;;;;0.50;0.50;;;9.60;99.90;;;;;;4965353;28;20050;-85
2021/03/15 12:12:10;;;;;;;3.47;0.68;;;11.20;99.90;;;;;;4965160;28;20055;-84
2021/03/15 12:14:36;;;;;;;0.45;0.30;;;14.10;94.30;;;;;;4979977;28;20052;-85
2021/03/15 12:17:03;;;;;;;0.47;0.47;;;14.60;80.00;;;;;;5019362;28;20046;-84
2021/03/15 12:19:29;;;;;;;0.55;0.55;;;14.30;75.00;;;;;;5002409;28;20093;-84
2021/03/15 12:22:00;;;;;;;0.65;0.50;;;13.90;85.30;;;;;;5003039;28;20050;-85
2021/03/15 12:24:26;;;;;;;1.90;0.68;;;14.70;78.30;;;;;;5021588;28;20049;-85
2021/03/15 12:26:52;;;;;;;1.33;0.70;;;17.20;67.00;;;;;;5002501;28;20057;-85
2021/03/15 12:29:19;;;;;;;1.70;0.57;;;15.70;61.50;;;;;;5002592;28;20533;-84
2021/03/15 12:31:45;;;;;;;1.30;0.82;;;13.80;67.60;;;;;;5003731;28;20104;-85
2021/03/15 12:34:12;;;;;;;3.15;1.02;;;13.00;69.60;;;;;;4994959;28;20054;-85
2021/03/15 12:36:38;;;;;;;2.90;0.90;;;12.00;73.30;;;;;;4984922;28;20081;-84
2021/03/15 12:39:05;;;;;;;1.80;0.93;;;11.20;79.40;;;;;;4984315;28;20056;-85
2021/03/15 12:41:33;;;;;;;8.00;1.10;;;10.80;81.90;;;;;;4982199;28;20070;-85
2021/03/15 12:43:59;;;;;;;1.73;0.70;;;10.40;84.80;;;;;;4983916;28;20050;-84
2021/03/15 12:46:26;;;;;;;1.90;0.95;;;10.20;86.50;;;;;;4984347;28;20420;-85
2021/03/15 12:48:53;;;;;;;7.25;0.80;;;10.10;89.90;;;;;;4983741;28;20046;-84
2021/03/15 12:51:19;;;;;;;6.50;4.97;;;10.10;90.90;;;;;;4983636;28;20109;-85
2021/03/15 12:53:46;;;;;;;8.20;2.13;;;9.70;94.80;;;;;;4984712;28;20047;-84
2021/03/15 12:56:12;;;;;;;1.52;0.80;;;9.90;95.10;;;;;;4984805;28;20093;-84
2021/03/15 12:58:41;;;;;;;1.33;0.80;;;9.80;90.70;;;;;;4984935;28;20082;-84
2021/03/15 13:01:07;;;;;;;0.80;0.55;;;10.00;93.00;;;;;;4983362;28;20080;-85
2021/03/15 13:03:34;;;;;;;6.07;1.00;;;10.30;91.30;;;;;;4983702;28;20113;-84
2021/03/15 13:06:01;;;;;;;3.33;0.47;;;10.10;88.80;;;;;;5000471;28;20046;-84
2021/03/15 13:08:27;;;;;;;2.30;0.50;;;9.60;89.20;;;;;;5001391;28;20556;-84
2021/03/15 13:10:53;;;;;;;2.90;0.73;;;9.50;92.00;;;;;;4983104;28;20059;-84
2021/03/15 13:13:21;;;;;;;3.10;0.88;;;9.50;90.30;;;;;;4984824;28;20057;-84
2021/03/15 13:16:07;;;;;;;5.10;0.70;;;9.50;91.10;;;;;;4989599;28;20073;-83
2021/03/15 13:18:35;;;;;;;3.33;0.70;;;9.60;92.10;;;;;;4987425;28;20092;-84